createdAt,value
2022-12-11T00:00:48.929Z,72.03
2022-12-11T00:03:19.111Z,74.41
2022-12-11T00:05:45.975Z,75.03
2022-12-11T00:08:12.847Z,76.07
2022-12-11T00:10:39.345Z,76.97
2022-12-11T00:13:05.784Z,77.31
2022-12-11T00:15:32.290Z,76.88
2022-12-11T00:17:58.733Z,76.11
2022-12-11T00:20:25.280Z,73.16
2022-12-11T00:22:51.748Z,72.62
2022-12-11T00:25:18.270Z,72.53
2022-12-11T00:27:46.324Z,73.21
2022-12-11T00:30:13.703Z,73.53
2022-12-11T00:32:40.217Z,74.81
2022-12-11T00:35:06.869Z,75.32
2022-12-11T00:37:33.332Z,74.85
2022-12-11T00:39:59.755Z,74.24
2022-12-11T00:42:26.173Z,73.37
2022-12-11T00:44:53.650Z,72.02
2022-12-11T00:47:20.149Z,71.47
2022-12-11T00:49:49.722Z,70.02
2022-12-11T00:52:17.839Z,70.10
2022-12-11T00:54:45.235Z,70.82
2022-12-11T00:57:11.731Z,69.48
2022-12-11T00:59:38.851Z,70.01
2022-12-11T01:02:05.655Z,69.06
2022-12-11T01:04:32.101Z,68.18
2022-12-11T01:06:58.882Z,68.54
2022-12-11T01:09:48.581Z,69.00
2022-12-11T01:12:15.412Z,69.14
2022-12-11T01:14:41.965Z,69.61
2022-12-11T01:17:08.911Z,69.45
2022-12-11T01:19:35.700Z,71.14
2022-12-11T01:22:02.353Z,71.70
2022-12-11T01:24:28.850Z,70.41
2022-12-11T01:26:55.282Z,70.79
2022-12-11T01:29:21.799Z,69.85
2022-12-11T01:31:48.243Z,69.96
2022-12-11T01:34:14.679Z,70.84
2022-12-11T01:36:41.093Z,70.44
2022-12-11T01:39:07.549Z,70.46
2022-12-11T01:41:33.973Z,71.11
2022-12-11T01:44:28.010Z,71.10
2022-12-11T01:46:54.530Z,71.66
2022-12-11T01:49:25.949Z,72.41
2022-12-11T01:51:58.156Z,74.68
2022-12-11T01:54:26.982Z,76.30
2022-12-11T01:56:58.385Z,76.84
2022-12-11T01:59:27.083Z,77.88
2022-12-11T02:02:07.694Z,78.10
2022-12-11T02:04:36.246Z,78.19
2022-12-11T02:07:03.745Z,78.72
2022-12-11T02:09:37.288Z,79.10
2022-12-11T02:12:31.214Z,78.40
2022-12-11T02:15:20.059Z,78.36
2022-12-11T02:18:11.223Z,78.71
2022-12-11T02:20:49.556Z,78.15
2022-12-11T02:23:43.711Z,77.67
2022-12-11T02:26:36.523Z,77.78
2022-12-11T02:29:08.609Z,77.93
2022-12-11T02:31:50.674Z,76.95
2022-12-11T02:34:30.701Z,77.04
2022-12-11T02:37:02.227Z,77.24
2022-12-11T02:39:30.234Z,76.95
2022-12-11T02:41:56.867Z,77.29
2022-12-11T02:44:28.065Z,76.87
2022-12-11T02:46:55.564Z,76.87
2022-12-11T02:49:24.214Z,76.72
2022-12-11T02:51:52.264Z,76.45
2022-12-11T02:54:25.413Z,76.50
2022-12-11T02:56:58.895Z,76.05
2022-12-11T02:59:41.176Z,75.92
2022-12-11T03:02:08.107Z,74.83
2022-12-11T03:04:36.392Z,73.83
2022-12-11T03:07:13.809Z,73.30
2022-12-11T03:09:44.829Z,71.95
2022-12-11T03:12:13.703Z,72.69
2022-12-11T03:14:42.023Z,73.33
2022-12-11T03:17:14.348Z,74.12
2022-12-11T03:19:48.298Z,73.31
2022-12-11T03:22:42.493Z,71.93
2022-12-11T03:25:16.609Z,71.74
2022-12-11T03:27:55.441Z,71.73
2022-12-11T03:30:23.802Z,72.65
2022-12-11T03:32:50.308Z,72.68
2022-12-11T03:35:25.485Z,72.53
2022-12-11T03:37:54.891Z,72.22
2022-12-11T03:40:23.749Z,73.20
2022-12-11T03:42:53.487Z,73.02
2022-12-11T03:45:22.582Z,73.34
2022-12-11T03:47:51.261Z,74.71
2022-12-11T03:50:20.355Z,71.09
2022-12-11T03:52:48.152Z,70.56
2022-12-11T03:55:16.755Z,71.39
2022-12-11T03:57:43.587Z,73.01
2022-12-11T04:00:14.686Z,73.92
2022-12-11T04:02:42.005Z,70.48
2022-12-11T04:05:10.214Z,69.75
2022-12-11T04:07:37.315Z,70.13
2022-12-11T04:10:05.473Z,70.46
2022-12-11T04:12:31.904Z,70.76
2022-12-11T04:15:04.107Z,70.87
2022-12-11T04:17:51.740Z,70.04
2022-12-11T04:20:37.032Z,70.44
2022-12-11T04:23:24.225Z,69.99
2022-12-11T04:25:51.159Z,67.70
2022-12-11T04:28:17.614Z,67.28
2022-12-11T04:30:51.467Z,68.05
2022-12-11T04:33:17.919Z,69.01
2022-12-11T04:35:44.564Z,69.36
2022-12-11T04:38:10.977Z,69.81
2022-12-11T04:40:37.387Z,70.30
2022-12-11T04:43:03.855Z,71.29
2022-12-11T04:45:30.277Z,71.82
2022-12-11T04:47:56.792Z,71.24
2022-12-11T04:50:23.267Z,71.44
2022-12-11T04:52:49.680Z,72.48
2022-12-11T04:55:16.155Z,73.23
2022-12-11T04:57:42.619Z,73.89
2022-12-11T05:00:11.369Z,74.19
2022-12-11T05:02:39.740Z,71.16
2022-12-11T05:05:09.929Z,69.45
2022-12-11T05:07:37.762Z,69.72
2022-12-11T05:10:05.160Z,71.04
2022-12-11T05:12:32.521Z,72.06
2022-12-11T05:14:59.040Z,72.28
2022-12-11T05:17:25.545Z,72.14
2022-12-11T05:19:52.236Z,70.96
2022-12-11T05:22:19.087Z,73.04
2022-12-11T05:24:45.804Z,74.49
2022-12-11T05:27:12.327Z,75.20
2022-12-11T05:29:38.829Z,75.19
2022-12-11T05:32:05.514Z,75.81
2022-12-11T05:34:32.851Z,75.75
2022-12-11T05:36:59.487Z,75.64
2022-12-11T05:39:25.933Z,75.94
2022-12-11T05:41:52.352Z,74.74
2022-12-11T05:44:18.780Z,74.17
2022-12-11T05:46:45.264Z,74.03
2022-12-11T05:49:11.906Z,73.10
2022-12-11T05:51:39.578Z,72.99
2022-12-11T05:54:06.179Z,72.95
2022-12-11T05:56:34.920Z,72.59
2022-12-11T05:59:02.913Z,73.26
2022-12-11T06:01:32.264Z,73.83
2022-12-11T06:03:59.116Z,73.96
2022-12-11T06:06:26.651Z,74.30
2022-12-11T06:08:54.833Z,74.32
2022-12-11T06:11:24.311Z,75.20
2022-12-11T06:13:52.028Z,74.83
2022-12-11T06:16:19.923Z,73.48
2022-12-11T06:18:46.532Z,73.32
2022-12-11T06:21:20.493Z,73.82
2022-12-11T06:23:48.712Z,73.13
2022-12-11T06:26:16.577Z,72.15
2022-12-11T06:28:43.257Z,73.37
2022-12-11T06:31:09.905Z,73.80
2022-12-11T06:33:36.449Z,74.84
2022-12-11T06:36:08.781Z,75.64
2022-12-11T06:38:35.684Z,74.76
2022-12-11T06:41:04.825Z,72.61
2022-12-11T06:43:35.911Z,70.53
2022-12-11T06:46:06.696Z,71.56
2022-12-11T06:48:33.901Z,69.41
2022-12-11T06:51:00.336Z,69.87
2022-12-11T06:53:26.772Z,71.58
2022-12-11T06:55:53.176Z,72.80
2022-12-11T06:58:19.647Z,74.16
2022-12-11T07:00:46.116Z,73.18
2022-12-11T07:03:13.695Z,72.65
2022-12-11T07:05:40.156Z,69.97
2022-12-11T07:08:07.379Z,69.79
2022-12-11T07:10:34.122Z,69.60
2022-12-11T07:13:00.544Z,69.77
2022-12-11T07:15:26.987Z,70.42
2022-12-11T07:17:53.600Z,71.15
2022-12-11T07:20:20.036Z,72.06
2022-12-11T07:22:46.996Z,73.03
2022-12-11T07:25:14.287Z,73.38
2022-12-11T07:27:41.593Z,74.12
2022-12-11T07:30:09.114Z,73.63
2022-12-11T07:32:35.623Z,73.42
2022-12-11T07:35:02.184Z,73.60
2022-12-11T07:37:28.578Z,73.32
2022-12-11T07:39:55.024Z,71.63
2022-12-11T07:42:21.480Z,71.26
2022-12-11T07:44:48.153Z,71.28
2022-12-11T07:47:15.067Z,72.00
2022-12-11T07:49:41.592Z,72.40
2022-12-11T07:52:08.048Z,72.63
2022-12-11T07:54:34.479Z,73.23
2022-12-11T07:57:01.585Z,73.01
2022-12-11T07:59:28.013Z,72.71
2022-12-11T08:01:54.557Z,72.77
2022-12-11T08:04:21.041Z,73.35
2022-12-11T08:06:47.745Z,73.42
2022-12-11T08:09:21.107Z,73.44
2022-12-11T08:11:51.851Z,73.35
2022-12-11T08:14:19.414Z,73.97
2022-12-11T08:16:46.038Z,74.72
2022-12-11T08:19:13.168Z,74.41
2022-12-11T08:21:40.341Z,72.67
2022-12-11T08:24:07.809Z,72.03
2022-12-11T08:26:34.272Z,72.02
2022-12-11T08:29:02.305Z,71.51
2022-12-11T08:31:29.263Z,70.81
2022-12-11T08:33:56.891Z,72.20
2022-12-11T08:36:24.033Z,73.00
2022-12-11T08:38:51.104Z,73.44
2022-12-11T08:41:24.125Z,73.08
2022-12-11T08:43:54.780Z,73.45
2022-12-11T08:46:23.812Z,73.00
2022-12-11T08:48:50.932Z,73.01
2022-12-11T08:51:22.879Z,72.93
2022-12-11T08:53:50.179Z,73.58
2022-12-11T08:56:19.157Z,73.69
2022-12-11T08:58:46.387Z,73.44
2022-12-11T09:01:15.501Z,73.58
2022-12-11T09:03:42.342Z,73.91
2022-12-11T09:06:15.243Z,73.87
2022-12-11T09:08:47.198Z,74.31
2022-12-11T09:11:22.715Z,74.18
2022-12-11T09:13:49.501Z,73.82
2022-12-11T09:16:18.643Z,74.05
2022-12-11T09:18:50.266Z,73.65
2022-12-11T09:21:19.894Z,73.44
2022-12-11T09:23:46.826Z,73.12
2022-12-11T09:26:16.621Z,73.76
2022-12-11T09:28:46.553Z,73.20
2022-12-11T09:31:16.291Z,73.20
2022-12-11T09:33:43.138Z,72.12
2022-12-11T09:36:10.577Z,71.89
2022-12-11T09:38:37.477Z,72.03
2022-12-11T09:41:21.923Z,71.56
2022-12-11T09:44:19.037Z,71.49
2022-12-11T09:46:47.298Z,71.86
2022-12-11T09:49:22.989Z,72.43
2022-12-11T09:52:19.394Z,71.79
2022-12-11T09:54:55.896Z,72.32
2022-12-11T09:57:28.214Z,71.76
2022-12-11T10:00:05.883Z,71.04
2022-12-11T10:03:09.638Z,70.44
2022-12-11T10:06:04.474Z,69.81
2022-12-11T10:09:07.634Z,69.39
2022-12-11T10:11:39.972Z,69.54
2022-12-11T10:14:24.742Z,69.25
2022-12-11T10:16:57.569Z,69.22
2022-12-11T10:19:30.533Z,68.68
2022-12-11T10:21:58.520Z,68.84
2022-12-11T10:25:10.066Z,68.81
2022-12-11T10:27:34.633Z,68.30
2022-12-11T10:30:21.351Z,68.39
2022-12-11T10:33:06.492Z,68.00
2022-12-11T10:35:41.942Z,68.08
2022-12-11T10:38:18.411Z,67.33
2022-12-11T10:40:46.163Z,67.35
2022-12-11T10:43:12.771Z,67.29
2022-12-11T10:45:39.324Z,67.10
2022-12-11T10:48:10.507Z,67.46
2022-12-11T10:50:37.835Z,66.95
2022-12-11T10:53:05.469Z,66.34
2022-12-11T10:55:44.382Z,66.09
2022-12-11T10:58:24.078Z,66.07
2022-12-11T11:01:14.663Z,65.60
2022-12-11T11:03:55.092Z,64.44
2022-12-11T11:06:23.908Z,63.67
2022-12-11T11:08:56.232Z,62.77
2022-12-11T11:11:29.881Z,62.46
2022-12-11T11:14:15.502Z,62.13
2022-12-11T11:16:45.393Z,62.50
2022-12-11T11:19:21.884Z,61.69
2022-12-11T11:21:52.093Z,59.65
2022-12-11T11:24:26.780Z,58.19
2022-12-11T11:27:12.777Z,58.40
2022-12-11T11:29:41.993Z,56.61
2022-12-11T11:32:20.190Z,54.52
2022-12-11T11:34:46.671Z,54.42
2022-12-11T11:37:32.200Z,53.96
2022-12-11T11:40:08.238Z,53.77
2022-12-11T11:43:18.980Z,55.55
2022-12-11T11:45:45.431Z,57.59
2022-12-11T11:48:48.339Z,56.56
2022-12-11T11:51:30.348Z,55.00
2022-12-11T11:54:01.474Z,51.59
2022-12-11T11:56:34.973Z,56.53
2022-12-11T11:59:10.381Z,54.42
2022-12-11T12:01:37.535Z,51.08
2022-12-11T12:04:05.009Z,51.59
2022-12-11T12:06:47.407Z,51.42
2022-12-11T12:09:30.516Z,52.90
2022-12-11T12:12:25.675Z,53.99
2022-12-11T12:14:55.004Z,54.68
2022-12-11T12:17:36.000Z,52.83
2022-12-11T12:20:17.705Z,53.13
2022-12-11T12:22:56.509Z,54.63
2022-12-11T12:25:51.286Z,54.53
2022-12-11T12:29:06.186Z,54.60
2022-12-11T12:31:35.725Z,56.30
2022-12-11T12:34:38.779Z,57.30
2022-12-11T12:37:05.160Z,56.01
2022-12-11T12:39:47.337Z,55.81
2022-12-11T12:42:26.920Z,55.48
2022-12-11T12:45:26.372Z,56.19
2022-12-11T12:47:53.640Z,56.69
2022-12-11T12:50:23.116Z,57.57
2022-12-11T12:52:51.767Z,57.46
2022-12-11T12:55:24.692Z,55.62
2022-12-11T12:58:07.330Z,57.17
2022-12-11T13:00:38.697Z,59.01
2022-12-11T13:03:32.923Z,58.31
2022-12-11T13:06:02.574Z,59.09
2022-12-11T13:08:37.810Z,60.50
2022-12-11T13:11:08.264Z,58.89
2022-12-11T13:13:41.708Z,58.04
2022-12-11T13:16:16.997Z,58.48
2022-12-11T13:18:47.365Z,56.68
2022-12-11T13:21:34.089Z,56.95
2022-12-11T13:24:26.024Z,56.52
2022-12-11T13:26:52.436Z,57.44
2022-12-11T13:29:37.764Z,57.43
2022-12-11T13:32:11.291Z,56.92
2022-12-11T13:34:40.948Z,56.72
2022-12-11T13:37:24.440Z,56.84
2022-12-11T13:39:51.771Z,56.58
2022-12-11T13:42:33.277Z,57.53
2022-12-11T13:45:01.036Z,57.29
2022-12-11T13:47:29.001Z,58.40
2022-12-11T13:50:02.026Z,57.34
2022-12-11T13:52:28.726Z,56.99
2022-12-11T13:54:56.309Z,56.83
2022-12-11T13:57:30.309Z,57.46
2022-12-11T13:59:58.113Z,56.94
2022-12-11T14:02:32.489Z,57.03
2022-12-11T14:05:08.275Z,55.92
2022-12-11T14:07:40.517Z,55.56
2022-12-11T14:10:19.509Z,55.76
2022-12-11T14:13:01.879Z,56.18
2022-12-11T14:15:29.925Z,56.96
2022-12-11T14:17:58.088Z,57.42
2022-12-11T14:20:33.721Z,56.23
2022-12-11T14:23:20.522Z,56.02
2022-12-11T14:25:55.611Z,56.30
2022-12-11T14:28:27.314Z,56.81
2022-12-11T14:30:59.587Z,57.42
2022-12-11T14:33:32.344Z,59.03
2022-12-11T14:35:59.155Z,57.99
2022-12-11T14:38:26.010Z,58.01
2022-12-11T14:40:58.910Z,58.42
2022-12-11T14:43:40.135Z,58.93
2022-12-11T14:46:17.351Z,59.83
2022-12-11T14:48:57.503Z,59.92
2022-12-11T14:51:31.273Z,60.39
2022-12-11T14:53:58.179Z,60.34
2022-12-11T14:56:27.367Z,60.49
2022-12-11T14:59:06.313Z,59.48
2022-12-11T15:01:35.222Z,60.55
2022-12-11T15:04:21.981Z,60.90
2022-12-11T15:06:50.331Z,62.65
2022-12-11T15:09:29.932Z,63.30
2022-12-11T15:12:06.965Z,64.19
2022-12-11T15:14:33.803Z,64.02
2022-12-11T15:17:00.456Z,63.72
2022-12-11T15:19:31.462Z,64.06
2022-12-11T15:22:05.894Z,64.31
2022-12-11T15:24:39.966Z,64.45
2022-12-11T15:27:13.837Z,65.11
2022-12-11T15:29:40.360Z,65.75
2022-12-11T15:32:09.477Z,66.78
2022-12-11T15:34:42.111Z,67.03
2022-12-11T15:37:22.466Z,67.79
2022-12-11T15:39:49.147Z,67.95
2022-12-11T15:42:23.044Z,68.43
2022-12-11T15:44:49.599Z,68.75
2022-12-11T15:47:21.285Z,68.59
2022-12-11T15:49:47.707Z,68.06
2022-12-11T15:52:14.120Z,68.05
2022-12-11T15:54:40.536Z,68.25
2022-12-11T15:57:16.561Z,68.12
2022-12-11T15:59:44.187Z,68.33
2022-12-11T16:02:13.848Z,68.57
2022-12-11T16:04:41.067Z,68.45
2022-12-11T16:07:23.598Z,68.20
2022-12-11T16:09:50.440Z,68.63
2022-12-11T16:12:17.008Z,68.83
2022-12-11T16:14:45.156Z,68.74
2022-12-11T16:17:13.607Z,69.03
2022-12-11T16:19:42.006Z,68.96
2022-12-11T16:22:09.084Z,69.04
2022-12-11T16:24:36.053Z,69.64
2022-12-11T16:27:03.748Z,69.38
2022-12-11T16:29:34.342Z,69.13
2022-12-11T16:32:00.932Z,69.35
2022-12-11T16:34:28.120Z,69.73
2022-12-11T16:36:57.984Z,69.78
2022-12-11T16:39:24.592Z,69.59
2022-12-11T16:41:51.162Z,69.07
2022-12-11T16:44:23.068Z,69.31
2022-12-11T16:46:49.654Z,68.92
2022-12-11T16:49:18.543Z,69.15
2022-12-11T16:51:45.314Z,69.18
2022-12-11T16:54:12.243Z,69.31
2022-12-11T16:56:39.185Z,69.08
2022-12-11T16:59:06.218Z,68.02
2022-12-11T17:01:33.427Z,68.08
2022-12-11T17:04:00.235Z,68.39
2022-12-11T17:06:26.886Z,68.97
2022-12-11T17:08:53.686Z,68.55
2022-12-11T17:11:23.322Z,69.36
2022-12-11T17:13:57.841Z,69.94
2022-12-11T17:16:26.476Z,70.59
2022-12-11T17:18:53.587Z,70.48
2022-12-11T17:21:21.237Z,70.48
2022-12-11T17:23:48.748Z,69.92
2022-12-11T17:26:16.564Z,69.43
2022-12-11T17:28:43.698Z,68.73
2022-12-11T17:31:16.099Z,69.36
2022-12-11T17:33:44.117Z,69.02
2022-12-11T17:36:13.651Z,69.25
2022-12-11T17:38:40.506Z,69.53
2022-12-11T17:41:08.963Z,68.40
2022-12-11T17:43:36.036Z,68.69
2022-12-11T17:46:03.177Z,68.70
2022-12-11T17:48:29.900Z,68.84
2022-12-11T17:50:56.667Z,68.14
2022-12-11T17:53:23.404Z,68.19
2022-12-11T17:55:51.848Z,69.11
2022-12-11T17:58:22.198Z,69.09
2022-12-11T18:00:52.149Z,67.92
2022-12-11T18:03:19.103Z,67.91
2022-12-11T18:05:51.572Z,68.05
2022-12-11T18:08:21.718Z,67.37
2022-12-11T18:10:48.518Z,66.61
2022-12-11T18:13:17.945Z,67.56
2022-12-11T18:15:44.606Z,68.38
2022-12-11T18:18:11.295Z,69.75
2022-12-11T18:20:38.996Z,69.72
2022-12-11T18:23:05.643Z,71.06
2022-12-11T18:25:32.924Z,68.75
2022-12-11T18:28:00.129Z,68.21
2022-12-11T18:30:26.757Z,67.63
2022-12-11T18:32:53.478Z,68.43
2022-12-11T18:35:20.428Z,68.91
2022-12-11T18:37:47.263Z,68.59
2022-12-11T18:40:14.006Z,68.07
2022-12-11T18:42:40.571Z,68.56
2022-12-11T18:45:07.737Z,68.86
2022-12-11T18:47:34.332Z,68.05
2022-12-11T18:50:07.190Z,68.25
2022-12-11T18:52:34.739Z,68.62
2022-12-11T18:55:01.524Z,69.36
2022-12-11T18:57:28.186Z,69.47
2022-12-11T18:59:54.794Z,69.48
2022-12-11T19:02:22.135Z,69.22
2022-12-11T19:04:48.780Z,69.00
2022-12-11T19:07:15.393Z,68.77
2022-12-11T19:09:47.537Z,67.91
2022-12-11T19:12:14.550Z,67.96
2022-12-11T19:14:41.513Z,68.34
2022-12-11T19:17:08.126Z,68.25
2022-12-11T19:19:35.939Z,68.44
2022-12-11T19:22:02.748Z,68.40
2022-12-11T19:24:29.726Z,68.33
2022-12-11T19:26:56.303Z,68.48
2022-12-11T19:29:26.495Z,68.59
2022-12-11T19:31:55.106Z,68.70
2022-12-11T19:34:23.108Z,68.76
2022-12-11T19:36:49.765Z,69.01
2022-12-11T19:39:16.558Z,68.87
2022-12-11T19:41:43.727Z,68.89
2022-12-11T19:44:10.155Z,69.07
2022-12-11T19:46:36.824Z,69.49
2022-12-11T19:49:03.909Z,69.59
2022-12-11T19:51:38.529Z,69.19
2022-12-11T19:54:07.494Z,69.07
2022-12-11T19:56:34.538Z,68.44
2022-12-11T19:59:06.374Z,67.96
2022-12-11T20:01:34.915Z,67.74
2022-12-11T20:04:04.692Z,67.72
2022-12-11T20:06:33.230Z,67.47
2022-12-11T20:09:01.169Z,67.89
2022-12-11T20:11:27.829Z,68.00
2022-12-11T20:13:57.110Z,67.63
2022-12-11T20:16:45.890Z,68.83
2022-12-11T20:19:10.588Z,68.76
2022-12-11T20:21:37.072Z,69.40
2022-12-11T20:24:03.631Z,70.03
2022-12-11T20:26:32.427Z,70.08
2022-12-11T20:28:58.949Z,70.24
2022-12-11T20:31:27.362Z,69.93
2022-12-11T20:33:56.009Z,69.59
2022-12-11T20:36:24.821Z,69.41
2022-12-11T20:38:51.638Z,69.37
2022-12-11T20:41:22.451Z,69.23
2022-12-11T20:43:49.190Z,68.85
2022-12-11T20:46:17.149Z,69.01
2022-12-11T20:48:44.628Z,68.54
2022-12-11T20:51:13.080Z,68.36
2022-12-11T20:53:41.188Z,68.78
2022-12-11T20:56:19.113Z,68.91
2022-12-11T20:58:46.520Z,69.26
2022-12-11T21:01:18.072Z,69.48
2022-12-11T21:03:45.097Z,69.56
2022-12-11T21:06:25.313Z,68.77
2022-12-11T21:08:53.124Z,68.86
2022-12-11T21:11:19.752Z,68.57
2022-12-11T21:13:50.547Z,69.02
2022-12-11T21:16:17.932Z,68.86
2022-12-11T21:18:46.400Z,69.43
2022-12-11T21:21:13.789Z,69.88
2022-12-11T21:23:40.445Z,69.88
2022-12-11T21:26:07.028Z,69.82
2022-12-11T21:28:35.646Z,69.49
2022-12-11T21:31:06.796Z,69.15
2022-12-11T21:33:34.122Z,69.52
2022-12-11T21:36:01.476Z,69.58
2022-12-11T21:38:28.821Z,70.16
2022-12-11T21:40:56.083Z,69.92
2022-12-11T21:43:22.903Z,69.84
2022-12-11T21:46:01.170Z,69.79
2022-12-11T21:48:28.117Z,69.54
2022-12-11T21:50:54.726Z,66.72
2022-12-11T21:53:21.187Z,67.08
2022-12-11T21:55:47.610Z,68.41
2022-12-11T21:58:14.025Z,69.00
2022-12-11T22:00:40.459Z,69.59
2022-12-11T22:03:06.999Z,70.33
2022-12-11T22:05:33.456Z,68.39
2022-12-11T22:08:00.011Z,68.28
2022-12-11T22:10:28.204Z,69.23
2022-12-11T22:12:54.751Z,69.57
2022-12-11T22:15:21.277Z,69.88
2022-12-11T22:17:47.705Z,69.73
2022-12-11T22:20:14.547Z,68.80
2022-12-11T22:22:41.045Z,67.85
2022-12-11T22:25:07.871Z,67.74
2022-12-11T22:27:34.651Z,68.39
2022-12-11T22:30:01.079Z,67.96
2022-12-11T22:32:27.717Z,67.87
2022-12-11T22:34:56.207Z,67.47
2022-12-11T22:37:22.828Z,68.07
2022-12-11T22:39:49.783Z,68.45
2022-12-11T22:42:16.322Z,68.28
2022-12-11T22:44:42.794Z,69.06
2022-12-11T22:47:09.275Z,69.76
2022-12-11T22:49:35.861Z,70.12
2022-12-11T22:52:02.275Z,70.27
2022-12-11T22:54:28.757Z,70.29
2022-12-11T22:56:55.186Z,69.48
2022-12-11T22:59:21.653Z,69.74
2022-12-11T23:01:48.571Z,69.63
2022-12-11T23:04:14.993Z,67.72
2022-12-11T23:06:41.551Z,66.73
2022-12-11T23:09:08.106Z,66.63
2022-12-11T23:11:37.710Z,66.60
2022-12-11T23:14:05.759Z,66.99
2022-12-11T23:16:32.369Z,67.49
2022-12-11T23:18:59.033Z,68.06
2022-12-11T23:21:27.245Z,68.07
2022-12-11T23:23:54.635Z,68.92
2022-12-11T23:26:22.689Z,69.56
2022-12-11T23:28:49.458Z,70.03
2022-12-11T23:31:17.645Z,70.11
2022-12-11T23:33:44.745Z,67.74
2022-12-11T23:36:11.745Z,67.26
2022-12-11T23:38:39.569Z,69.06
2022-12-11T23:41:07.469Z,69.73
2022-12-11T23:43:35.533Z,69.74
2022-12-11T23:46:04.105Z,70.07
2022-12-11T23:48:31.229Z,69.94
2022-12-11T23:51:02.251Z,68.84
2022-12-11T23:53:28.883Z,67.82
2022-12-11T23:55:55.495Z,68.12
2022-12-11T23:58:22.041Z,68.08
